»·PEaware :: N822JH CL46-L17

N822JH :: CL46-L17

FLIGHT INFORMATION

Flight Status: Arrived
Operator: Privately registered:
United States
More flights under this callsign
Pilot: Aleksandr Z. (18023)
Aircraft: PIPER PA-24 COMMANCHE
(PA24)
More flights by this aircraft type
Origin: CL46 Quail Lake Sky Park
Canada
Destination: L17 Taft-Kern Co
United States
More flights between these airports :: More routes between these airports
Route: GMN
File this flight plan on PilotEdge
Remarks: novice, live weather, ORBX South California packet
Altitude:
(Current/Filed)
6,500ft
Speed:
(Current/Filed)
140kts
Departed: 23-Jan-19 08:50 AM
Arrived: 23-Jan-19 09:24 AM
Distance/Time
Traveled:
42nm/0:34
Distance/Time
To Go:
Arrived

Flight Plot

Page will automatically refresh every two minutes.

Flight plan parsing failed; only flown route is shown


Map Options




Map Legend


Flown Route
Filed Route
Departure Airport
Arrival Airport
Navaid (VOR, NDB)
Fix

Horizontal Profiles

Position Reports

Time Latitude Longitude Heading Altitude Ground
Speed
23-Jan-19 08:35 34.767987 -118.736274 9 3338ft 0kts
23-Jan-19 08:36 34.767987 -118.736274 9 3338ft 0kts
23-Jan-19 08:37 34.767988 -118.736274 9 3338ft 0kts
23-Jan-19 08:38 34.767990 -118.736273 9 3338ft 0kts
23-Jan-19 08:39 34.767993 -118.736273 9 3338ft 0kts
23-Jan-19 08:40 34.767995 -118.736272 9 3338ft 0kts
23-Jan-19 08:41 34.767998 -118.736272 9 3338ft 0kts
23-Jan-19 08:42 34.768000 -118.736271 9 3338ft 0kts
23-Jan-19 08:43 34.768003 -118.736271 9 3338ft 0kts
23-Jan-19 08:44 34.768032 -118.736265 7 3338ft 1kts
23-Jan-19 08:45 34.768314 -118.737637 103 3338ft 0kts
23-Jan-19 08:46 34.768313 -118.737632 103 3338ft 0kts
23-Jan-19 08:47 34.768312 -118.737626 103 3338ft 0kts
23-Jan-19 08:48 34.768307 -118.737576 86 3338ft 1kts
23-Jan-19 08:49 34.767009 -118.727539 95 3473ft 80kts
23-Jan-19 08:50 34.772221 -118.711129 308 4416ft 85kts
23-Jan-19 08:51 34.774794 -118.743552 277 5301ft 109kts
23-Jan-19 08:52 34.777935 -118.779185 284 6281ft 104kts
23-Jan-19 08:53 34.787402 -118.820096 296 6541ft 141kts
23-Jan-19 08:54 34.802747 -118.863859 299 6697ft 139kts
23-Jan-19 08:55 34.821508 -118.905736 302 6628ft 139kts
23-Jan-19 08:56 34.848963 -118.939366 320 6533ft 138kts
23-Jan-19 08:57 34.871807 -118.976713 303 6515ft 136kts
23-Jan-19 08:58 34.892476 -119.014771 307 6507ft 135kts
23-Jan-19 08:59 34.915151 -119.051153 318 6507ft 132kts
23-Jan-19 09:00 34.935961 -119.086957 305 6525ft 128kts
23-Jan-19 09:01 34.955791 -119.123212 305 6529ft 128kts
23-Jan-19 09:02 34.975649 -119.160204 305 6539ft 136kts
23-Jan-19 09:03 34.997445 -119.199716 305 6542ft 142kts
23-Jan-19 09:04 35.020468 -119.238444 308 6534ft 135kts
23-Jan-19 09:05 35.042644 -119.274092 309 6528ft 129kts
23-Jan-19 09:06 35.064719 -119.308680 309 6533ft 132kts
23-Jan-19 09:07 35.085187 -119.342221 306 5821ft 109kts
23-Jan-19 09:08 35.103147 -119.371830 309 4930ft 102kts
23-Jan-19 09:09 35.121755 -119.398659 312 4113ft 107kts
23-Jan-19 09:10 35.146367 -119.419169 295 3342ft 109kts
23-Jan-19 09:12 35.149246 -119.455308 260 2656ft 98kts
23-Jan-19 09:13 35.147646 -119.487284 270 2111ft 91kts
23-Jan-19 09:14 35.143953 -119.512021 181 1815ft 76kts
23-Jan-19 09:15 35.139577 -119.487994 108 1997ft 97kts
23-Jan-19 09:16 35.138803 -119.456660 78 1624ft 82kts
23-Jan-19 09:17 35.142897 -119.427238 80 1454ft 96kts
23-Jan-19 09:18 35.151727 -119.397206 23 1801ft 89kts
23-Jan-19 09:19 35.175225 -119.412855 293 1755ft 100kts
23-Jan-19 09:20 35.172365 -119.446549 262 1831ft 99kts
23-Jan-19 09:21 35.165813 -119.480327 218 1798ft 102kts
23-Jan-19 09:22 35.139749 -119.479678 163 1790ft 95kts
23-Jan-19 09:23 35.139388 -119.453593 83 1204ft 86kts
23-Jan-19 09:24 35.142125 -119.434492 116 833ft 3kts
23-Jan-19 09:25 35.141609 -119.438248 258 833ft 12kts
23-Jan-19 09:26 35.140995 -119.442194 260 833ft 10kts
23-Jan-19 09:27 35.140537 -119.444748 208 833ft 0kts
23-Jan-19 09:28 35.140397 -119.444750 170 833ft 0kts
23-Jan-19 09:29 35.140396 -119.444750 170 833ft 0kts
23-Jan-19 09:30 35.140396 -119.444750 170 833ft 0kts
23-Jan-19 09:31 35.140396 -119.444750 170 833ft 0kts
23-Jan-19 09:32 35.140396 -119.444750 170 833ft 0kts
23-Jan-19 09:33 35.140396 -119.444750 170 833ft 0kts
23-Jan-19 09:34 35.140396 -119.444750 170 833ft 0kts
23-Jan-19 09:34 35.140396 -119.444750 170 833ft 0kts
23-Jan-19 09:35 35.140396 -119.444750 170 833ft 0kts
23-Jan-19 09:36 35.140396 -119.444750 170 833ft 0kts
23-Jan-19 09:38 35.140396 -119.444750 170 833ft 0kts

Navigation Log

Ident Type
Flight plan parsing failed, navigation log unavailable